createdAt,value
2023-02-24T00:02:00.916Z,4.68
2023-02-24T00:04:32.343Z,4.95
2023-02-24T00:07:00.933Z,4.53
2023-02-24T00:09:31.278Z,6.25
2023-02-24T00:12:01.469Z,6.05
2023-02-24T00:14:32.018Z,5.13
2023-02-24T00:17:01.727Z,5.97
2023-02-24T00:19:33.976Z,5.60
2023-02-24T00:22:02.816Z,6.13
2023-02-24T00:24:31.746Z,5.13
2023-02-24T00:27:02.282Z,5.05
2023-02-24T00:29:32.462Z,5.13
2023-02-24T00:32:01.623Z,5.38
2023-02-24T00:34:33.699Z,5.68
2023-02-24T00:37:02.299Z,5.38
2023-02-24T00:39:33.442Z,5.53
2023-02-24T00:42:05.725Z,5.32
2023-02-24T00:44:34.844Z,4.95
2023-02-24T00:47:04.937Z,5.05
2023-02-24T00:52:13.688Z,5.20
2023-02-24T00:54:42.342Z,4.95
2023-02-24T00:57:10.669Z,5.00
2023-02-24T00:59:39.582Z,5.13
2023-02-24T01:02:08.316Z,5.47
2023-02-24T01:04:38.629Z,5.72
2023-02-24T01:07:10.993Z,5.65
2023-02-24T01:12:27.650Z,5.22
2023-02-24T01:14:56.251Z,5.75
2023-02-24T01:17:25.521Z,5.70
2023-02-24T01:19:55.171Z,5.68
2023-02-24T01:22:24.004Z,5.65
2023-02-24T01:24:52.429Z,5.68
2023-02-24T01:27:20.654Z,5.25
2023-02-24T01:29:49.504Z,5.50
2023-02-24T01:32:24.213Z,5.35
2023-02-24T01:34:55.020Z,5.20
2023-02-24T01:37:25.266Z,5.65
2023-02-24T01:39:54.523Z,5.68
2023-02-24T01:42:23.973Z,5.47
2023-02-24T01:45:22.012Z,5.55
2023-02-24T01:47:51.694Z,5.63
2023-02-24T01:50:26.164Z,5.10
2023-02-24T01:52:58.802Z,5.57
2023-02-24T01:55:32.076Z,5.10
2023-02-24T01:58:05.656Z,5.30
2023-02-24T02:00:38.267Z,5.32
2023-02-24T02:03:19.550Z,5.40
2023-02-24T02:05:49.618Z,5.00
2023-02-24T02:08:19.659Z,5.10
2023-02-24T02:10:48.096Z,5.05
2023-02-24T02:13:21.525Z,5.03
2023-02-24T02:16:05.996Z,5.93
2023-02-24T02:18:47.456Z,5.18
2023-02-24T02:22:00.004Z,5.10
2023-02-24T02:24:50.558Z,5.43
2023-02-24T02:27:38.831Z,4.95
2023-02-24T02:30:43.948Z,4.80
2023-02-24T02:33:55.090Z,5.47
2023-02-24T02:36:31.275Z,5.35
2023-02-24T02:39:11.969Z,4.80
2023-02-24T02:41:50.771Z,4.88
2023-02-24T02:44:24.967Z,5.30
2023-02-24T02:47:01.222Z,4.97
2023-02-24T02:49:34.011Z,5.07
2023-02-24T02:52:13.842Z,4.82
2023-02-24T02:54:49.702Z,4.38
2023-02-24T02:57:22.494Z,5.20
2023-02-24T02:59:58.880Z,4.63
2023-02-24T03:02:40.119Z,5.13
2023-02-24T03:05:11.311Z,4.72
2023-02-24T03:07:45.417Z,4.72
2023-02-24T03:10:21.168Z,4.50
2023-02-24T03:12:52.877Z,5.50
2023-02-24T03:15:24.484Z,4.70
2023-02-24T03:20:29.358Z,4.90
2023-02-24T03:23:02.500Z,4.72
2023-02-24T03:25:39.568Z,4.68
2023-02-24T03:28:17.508Z,4.65
2023-02-24T03:30:50.692Z,4.72
2023-02-24T03:33:24.231Z,4.75
2023-02-24T03:35:53.671Z,5.72
2023-02-24T03:38:24.444Z,4.93
2023-02-24T03:40:53.520Z,4.82
2023-02-24T03:43:29.886Z,4.60
2023-02-24T03:46:00.699Z,4.97
2023-02-24T03:48:30.708Z,4.93
2023-02-24T03:51:00.585Z,5.00
2023-02-24T03:54:03.821Z,4.60
2023-02-24T03:56:46.226Z,4.75
2023-02-24T04:01:57.932Z,4.68
2023-02-24T04:04:37.727Z,4.72
2023-02-24T04:07:18.754Z,5.28
2023-02-24T04:09:59.579Z,4.85
2023-02-24T04:12:30.720Z,4.80
2023-02-24T04:15:09.070Z,5.10
2023-02-24T04:17:43.031Z,4.78
2023-02-24T04:20:17.268Z,5.25
2023-02-24T04:22:57.137Z,4.72
2023-02-24T04:25:29.108Z,4.40
2023-02-24T04:28:03.137Z,4.90
2023-02-24T04:30:35.415Z,4.88
2023-02-24T04:33:04.746Z,4.72
2023-02-24T04:35:34.185Z,4.97
2023-02-24T04:38:02.708Z,4.80
2023-02-24T04:40:33.392Z,4.47
2023-02-24T04:43:01.847Z,4.45
2023-02-24T04:45:31.952Z,4.35
2023-02-24T04:48:02.161Z,5.00
2023-02-24T04:50:33.474Z,4.72
2023-02-24T04:53:03.903Z,5.20
2023-02-24T04:55:39.183Z,4.88
2023-02-24T04:58:07.905Z,4.82
2023-02-24T05:00:36.331Z,4.38
2023-02-24T05:03:06.044Z,4.82
2023-02-24T05:05:34.363Z,4.65
2023-02-24T05:08:04.715Z,4.80
2023-02-24T05:10:39.466Z,4.80
2023-02-24T05:13:09.554Z,4.43
2023-02-24T05:15:41.981Z,4.85
2023-02-24T05:18:14.855Z,4.97
2023-02-24T05:21:05.933Z,4.90
2023-02-24T05:23:36.314Z,5.20
2023-02-24T05:26:09.073Z,4.20
2023-02-24T05:28:38.403Z,4.55
2023-02-24T05:31:09.654Z,4.78
2023-02-24T05:33:39.626Z,4.95
2023-02-24T05:36:12.151Z,4.32
2023-02-24T05:38:40.921Z,4.97
2023-02-24T05:41:17.025Z,4.70
2023-02-24T05:43:48.114Z,5.55
2023-02-24T05:46:16.794Z,4.65
2023-02-24T05:48:45.134Z,4.80
2023-02-24T05:51:13.629Z,4.82
2023-02-24T05:53:42.439Z,5.22
2023-02-24T05:56:12.522Z,4.93
2023-02-24T05:58:40.784Z,5.18
2023-02-24T06:01:16.350Z,5.10
2023-02-24T06:03:47.945Z,5.32
2023-02-24T06:06:17.056Z,4.97
2023-02-24T06:08:50.327Z,4.63
2023-02-24T06:11:22.104Z,5.22
2023-02-24T06:13:50.668Z,4.32
2023-02-24T06:16:19.852Z,5.47
2023-02-24T06:18:51.019Z,4.85
2023-02-24T06:21:19.549Z,5.63
2023-02-24T06:23:48.024Z,4.63
2023-02-24T06:26:20.043Z,4.90
2023-02-24T06:28:50.049Z,5.78
2023-02-24T06:31:18.692Z,5.20
2023-02-24T06:33:47.063Z,5.47
2023-02-24T06:36:15.493Z,4.53
2023-02-24T06:38:44.346Z,4.85
2023-02-24T06:41:13.343Z,5.05
2023-02-24T06:43:44.009Z,4.75
2023-02-24T06:46:15.532Z,4.95
2023-02-24T06:51:15.612Z,5.43
2023-02-24T06:53:44.886Z,5.05
2023-02-24T06:56:15.905Z,5.68
2023-02-24T06:58:45.265Z,5.57
2023-02-24T07:01:16.234Z,13.20
2023-02-24T07:04:03.426Z,12.00
2023-02-24T07:06:34.483Z,8.68
2023-02-24T07:09:07.124Z,8.18
2023-02-24T07:11:36.468Z,5.50
2023-02-24T07:14:06.554Z,6.57
2023-02-24T07:16:37.069Z,6.00
2023-02-24T07:19:11.293Z,5.90
2023-02-24T07:21:40.536Z,5.00
2023-02-24T07:24:09.784Z,4.90
2023-02-24T07:26:41.936Z,4.85
2023-02-24T07:29:11.719Z,5.10
2023-02-24T07:31:43.127Z,5.30
2023-02-24T07:34:15.090Z,4.85
2023-02-24T07:36:50.261Z,4.63
2023-02-24T07:39:18.942Z,4.55
2023-02-24T07:41:49.933Z,4.45
2023-02-24T07:44:19.322Z,4.57
2023-02-24T07:46:50.017Z,4.85
2023-02-24T07:49:20.686Z,4.80
2023-02-24T07:51:52.713Z,4.63
2023-02-24T07:54:23.212Z,5.18
2023-02-24T07:56:57.725Z,5.05
2023-02-24T07:59:28.270Z,5.22
2023-02-24T08:01:58.103Z,4.30
2023-02-24T08:04:29.237Z,5.35
2023-02-24T08:07:03.074Z,5.15
2023-02-24T08:09:50.384Z,5.00
2023-02-24T08:12:22.529Z,5.82
2023-02-24T08:14:53.356Z,5.60
2023-02-24T08:17:26.470Z,5.30
2023-02-24T08:20:16.449Z,6.18
2023-02-24T08:22:47.040Z,5.90
2023-02-24T08:25:18.839Z,5.50
2023-02-24T08:28:07.001Z,5.82
2023-02-24T08:30:40.074Z,6.65
2023-02-24T08:33:11.710Z,6.13
2023-02-24T08:35:45.106Z,6.05
2023-02-24T08:38:16.293Z,6.95
2023-02-24T08:40:53.348Z,6.65
2023-02-24T08:43:34.441Z,7.32
2023-02-24T08:46:12.606Z,6.63
2023-02-24T08:48:44.997Z,6.03
2023-02-24T08:51:17.935Z,6.78
2023-02-24T08:53:47.283Z,6.07
2023-02-24T08:56:24.364Z,6.72
2023-02-24T08:58:58.138Z,6.13
2023-02-24T09:01:34.695Z,6.10
2023-02-24T09:04:07.271Z,5.80
2023-02-24T09:06:44.191Z,6.65
2023-02-24T09:09:21.100Z,6.57
2023-02-24T09:11:56.111Z,6.55
2023-02-24T09:14:28.809Z,6.88
2023-02-24T09:17:06.966Z,6.65
2023-02-24T09:20:01.981Z,6.68
2023-02-24T09:22:31.644Z,6.70
2023-02-24T09:25:24.039Z,7.60
2023-02-24T09:27:55.649Z,7.32
2023-02-24T09:33:18.146Z,7.70
2023-02-24T09:35:51.050Z,7.45
2023-02-24T09:38:20.851Z,7.25
2023-02-24T09:40:50.432Z,8.38
2023-02-24T09:43:21.880Z,8.07
2023-02-24T09:45:58.651Z,8.82
2023-02-24T09:48:43.824Z,9.43
2023-02-24T09:51:22.743Z,8.82
2023-02-24T09:53:54.432Z,8.77
2023-02-24T09:56:30.711Z,8.82
2023-02-24T09:59:10.379Z,8.63
2023-02-24T10:01:45.192Z,10.05
2023-02-24T10:04:27.433Z,9.43
2023-02-24T10:07:03.752Z,9.70
2023-02-24T10:09:36.777Z,10.27
2023-02-24T10:12:11.733Z,10.38
2023-02-24T10:14:51.228Z,10.05
2023-02-24T10:17:30.649Z,13.13
2023-02-24T10:20:13.735Z,12.75
2023-02-24T10:22:51.483Z,11.70
2023-02-24T10:25:40.838Z,11.60
2023-02-24T10:28:23.108Z,11.45
2023-02-24T10:31:04.083Z,11.70
2023-02-24T10:33:38.809Z,13.35
2023-02-24T10:36:10.028Z,11.95
2023-02-24T10:38:45.357Z,19.92
2023-02-24T10:41:15.838Z,49.92
2023-02-24T10:43:56.031Z,30.48
2023-02-24T10:46:42.787Z,31.05
2023-02-24T10:49:16.501Z,25.50
2023-02-24T10:51:52.413Z,18.60
2023-02-24T10:54:44.947Z,21.55
2023-02-24T10:57:23.189Z,16.33
2023-02-24T11:00:15.438Z,15.50
2023-02-24T11:03:09.308Z,15.05
2023-02-24T11:06:06.716Z,13.18
2023-02-24T11:08:54.656Z,12.30
2023-02-24T11:11:29.912Z,11.35
2023-02-24T11:14:17.958Z,10.90
2023-02-24T11:17:05.923Z,10.77
2023-02-24T11:19:42.495Z,10.85
2023-02-24T11:22:15.362Z,10.05
2023-02-24T11:24:46.159Z,10.30
2023-02-24T11:27:19.490Z,11.05
2023-02-24T11:30:06.193Z,11.00
2023-02-24T11:33:05.213Z,9.02
2023-02-24T11:35:41.861Z,10.13
2023-02-24T11:38:27.864Z,8.82
2023-02-24T11:41:05.222Z,9.25
2023-02-24T11:43:38.619Z,9.35
2023-02-24T11:46:11.319Z,8.10
2023-02-24T11:48:44.152Z,9.30
2023-02-24T11:51:18.092Z,8.63
2023-02-24T11:53:51.067Z,9.13
2023-02-24T11:56:26.239Z,8.73
2023-02-24T11:59:03.433Z,9.23
2023-02-24T12:01:36.588Z,9.32
2023-02-24T12:04:17.831Z,9.10
2023-02-24T12:06:52.119Z,8.85
2023-02-24T12:09:24.370Z,8.85
2023-02-24T12:11:58.328Z,9.10
2023-02-24T12:14:34.692Z,8.55
2023-02-24T12:17:14.089Z,9.25
2023-02-24T12:19:54.621Z,8.75
2023-02-24T12:22:29.769Z,9.02
2023-02-24T12:24:58.455Z,8.80
2023-02-24T12:27:42.471Z,9.05
2023-02-24T12:30:48.769Z,9.48
2023-02-24T12:33:42.395Z,9.23
2023-02-24T12:36:23.770Z,9.48
2023-02-24T12:39:06.958Z,8.35
2023-02-24T12:41:47.695Z,9.85
2023-02-24T12:44:26.969Z,10.23
2023-02-24T12:47:06.045Z,10.60
2023-02-24T12:49:57.281Z,11.10
2023-02-24T12:52:32.280Z,10.95
2023-02-24T12:55:11.280Z,10.13
2023-02-24T12:57:48.411Z,9.98
2023-02-24T13:00:25.791Z,9.57
2023-02-24T13:03:02.057Z,9.73
2023-02-24T13:05:37.480Z,10.93
2023-02-24T13:08:28.664Z,9.30
2023-02-24T13:11:05.528Z,9.50
2023-02-24T13:13:41.358Z,10.13
2023-02-24T13:16:13.348Z,9.82
2023-02-24T13:18:42.983Z,9.45
2023-02-24T13:21:22.680Z,10.15
2023-02-24T13:23:58.279Z,10.32
2023-02-24T13:26:27.594Z,10.65
2023-02-24T13:29:01.944Z,11.32
2023-02-24T13:31:43.080Z,11.45
2023-02-24T13:34:30.750Z,11.50
2023-02-24T13:36:59.443Z,11.13
2023-02-24T13:39:35.629Z,12.40
2023-02-24T13:42:06.987Z,10.95
2023-02-24T13:47:34.314Z,11.43
2023-02-24T13:50:19.893Z,11.90
2023-02-24T13:53:13.235Z,12.48
2023-02-24T13:55:51.273Z,11.93
2023-02-24T13:58:32.016Z,13.05
2023-02-24T14:01:09.782Z,11.57
2023-02-24T14:03:41.059Z,12.43
2023-02-24T14:06:17.537Z,12.85
2023-02-24T14:08:48.640Z,11.82
2023-02-24T14:11:18.607Z,12.95
2023-02-24T14:13:50.732Z,12.23
2023-02-24T14:16:22.804Z,12.43
2023-02-24T14:18:56.154Z,12.88
2023-02-24T14:21:27.852Z,12.32
2023-02-24T14:26:25.244Z,11.77
2023-02-24T14:28:57.977Z,12.75
2023-02-24T14:31:27.023Z,12.80
2023-02-24T14:34:00.148Z,12.63
2023-02-24T14:36:32.972Z,12.40
2023-02-24T14:39:04.858Z,12.82
2023-02-24T14:41:33.071Z,13.52
2023-02-24T14:44:09.971Z,12.90
2023-02-24T14:46:48.708Z,12.82
2023-02-24T14:49:21.364Z,12.90
2023-02-24T14:51:55.767Z,12.80
2023-02-24T14:54:44.495Z,12.70
2023-02-24T14:57:15.699Z,12.77
2023-02-24T14:59:47.675Z,13.05
2023-02-24T15:02:19.816Z,13.43
2023-02-24T15:04:49.345Z,12.45
2023-02-24T15:07:22.262Z,13.00
2023-02-24T15:09:51.894Z,12.40
2023-02-24T15:12:30.127Z,13.48
2023-02-24T15:15:02.184Z,13.48
2023-02-24T15:17:30.711Z,11.57
2023-02-24T15:19:59.033Z,12.45
2023-02-24T15:22:30.453Z,12.13
2023-02-24T15:25:22.409Z,13.05
2023-02-24T15:27:56.715Z,11.90
2023-02-24T15:30:31.213Z,11.13
2023-02-24T15:33:08.728Z,12.63
2023-02-24T15:35:47.225Z,12.07
2023-02-24T15:38:23.921Z,11.27
2023-02-24T15:40:54.232Z,12.00
2023-02-24T15:43:34.052Z,11.07
2023-02-24T15:46:02.536Z,11.40
2023-02-24T15:48:31.640Z,10.35
2023-02-24T15:51:06.208Z,10.65
2023-02-24T15:53:35.838Z,11.75
2023-02-24T15:56:04.054Z,11.10
2023-02-24T15:58:33.116Z,10.65
2023-02-24T16:01:01.622Z,10.60
2023-02-24T16:03:29.884Z,10.45
2023-02-24T16:05:58.266Z,10.45
2023-02-24T16:08:26.531Z,10.82
2023-02-24T16:10:56.149Z,9.48
2023-02-24T16:13:26.544Z,10.55
2023-02-24T16:15:56.383Z,11.05
2023-02-24T16:18:27.150Z,10.18
2023-02-24T16:20:56.688Z,10.23
2023-02-24T16:23:26.835Z,10.50
2023-02-24T16:25:58.315Z,11.38
2023-02-24T16:28:26.936Z,11.68
2023-02-24T16:30:55.436Z,61.13
2023-02-24T16:33:24.209Z,103.28
2023-02-24T16:35:53.856Z,143.07
2023-02-24T16:38:26.592Z,190.15
2023-02-24T16:40:56.491Z,125.78
2023-02-24T16:43:24.747Z,155.27
2023-02-24T16:45:55.210Z,110.07
2023-02-24T16:48:26.143Z,78.95
2023-02-24T16:50:54.706Z,115.35
2023-02-24T16:53:25.403Z,91.10
2023-02-24T16:55:55.089Z,108.23
2023-02-24T16:58:24.770Z,154.90
2023-02-24T17:00:56.525Z,97.45
2023-02-24T17:03:26.200Z,74.40
2023-02-24T17:05:55.126Z,66.72
2023-02-24T17:08:23.525Z,109.63
2023-02-24T17:10:53.001Z,58.55
2023-02-24T17:13:23.151Z,37.55
2023-02-24T17:15:55.167Z,23.38
2023-02-24T17:18:23.811Z,27.27
2023-02-24T17:20:52.531Z,58.90
2023-02-24T17:23:21.305Z,79.28
2023-02-24T17:25:53.683Z,92.53
2023-02-24T17:28:23.564Z,70.35
2023-02-24T17:30:52.299Z,48.83
2023-02-24T17:33:20.983Z,33.85
2023-02-24T17:35:49.519Z,22.40
2023-02-24T17:38:19.032Z,14.70
2023-02-24T17:40:47.742Z,10.45
2023-02-24T17:43:16.364Z,8.80
2023-02-24T17:45:48.006Z,6.60
2023-02-24T17:48:17.181Z,5.72
2023-02-24T17:50:46.741Z,4.53
2023-02-24T17:53:15.467Z,4.00
2023-02-24T17:56:01.077Z,3.72
2023-02-24T17:58:30.729Z,4.05
2023-02-24T18:01:02.036Z,3.17
2023-02-24T18:03:30.516Z,3.00
2023-02-24T18:06:00.597Z,2.85
2023-02-24T18:08:30.465Z,3.13
2023-02-24T18:10:59.160Z,2.60
2023-02-24T18:13:27.698Z,2.33
2023-02-24T18:15:56.316Z,2.75
2023-02-24T18:18:26.555Z,2.92
2023-02-24T18:20:58.640Z,2.90
2023-02-24T18:23:27.018Z,2.58
2023-02-24T18:25:55.281Z,2.88
2023-02-24T18:28:23.563Z,3.25
2023-02-24T18:30:52.113Z,3.55
2023-02-24T18:33:20.783Z,3.20
2023-02-24T18:35:58.406Z,3.25
2023-02-24T18:38:26.823Z,2.92
2023-02-24T18:40:59.580Z,4.88
2023-02-24T18:43:27.909Z,4.22
2023-02-24T18:46:00.558Z,4.80
2023-02-24T18:48:29.670Z,4.32
2023-02-24T18:50:59.829Z,4.05
2023-02-24T18:53:30.578Z,4.63
2023-02-24T18:56:02.852Z,4.10
2023-02-24T18:58:31.675Z,5.28
2023-02-24T19:01:00.311Z,4.38
2023-02-24T19:03:28.524Z,4.10
2023-02-24T19:05:58.140Z,4.30
2023-02-24T19:08:27.028Z,4.63
2023-02-24T19:10:55.312Z,4.53
2023-02-24T19:13:24.286Z,4.15
2023-02-24T19:15:52.673Z,4.00
2023-02-24T19:18:20.925Z,4.28
2023-02-24T19:20:49.502Z,3.67
2023-02-24T19:23:19.148Z,4.07
2023-02-24T19:25:47.484Z,3.85
2023-02-24T19:28:16.620Z,4.57
2023-02-24T19:30:44.994Z,4.00
2023-02-24T19:33:13.229Z,4.63
2023-02-24T19:35:43.241Z,4.30
2023-02-24T19:38:15.936Z,4.57
2023-02-24T19:40:46.438Z,4.45
2023-02-24T19:43:14.773Z,5.47
2023-02-24T19:45:43.201Z,4.63
2023-02-24T19:48:11.960Z,4.97
2023-02-24T19:50:41.226Z,5.20
2023-02-24T19:53:09.993Z,4.28
2023-02-24T19:55:38.369Z,4.00
2023-02-24T19:58:07.977Z,3.75
2023-02-24T20:00:36.244Z,3.63
2023-02-24T20:03:04.493Z,3.88
2023-02-24T20:05:32.813Z,3.05
2023-02-24T20:08:01.032Z,3.03
2023-02-24T20:10:29.267Z,3.45
2023-02-24T20:12:58.081Z,3.72
2023-02-24T20:15:27.629Z,3.90
2023-02-24T20:17:55.990Z,3.90
2023-02-24T20:20:24.581Z,3.80
2023-02-24T20:22:52.809Z,3.78
2023-02-24T20:25:20.998Z,3.10
2023-02-24T20:27:49.332Z,4.10
2023-02-24T20:30:17.862Z,2.67
2023-02-24T20:32:48.255Z,3.72
2023-02-24T20:35:16.701Z,3.97
2023-02-24T20:37:44.956Z,3.33
2023-02-24T20:40:13.863Z,3.38
2023-02-24T20:42:43.436Z,4.72
2023-02-24T20:45:12.590Z,3.63
2023-02-24T20:47:40.828Z,4.32
2023-02-24T20:50:10.996Z,3.30
2023-02-24T20:52:39.944Z,4.07
2023-02-24T20:55:08.994Z,3.88
2023-02-24T20:57:37.379Z,4.07
2023-02-24T21:00:08.033Z,3.63
2023-02-24T21:02:36.757Z,4.03
2023-02-24T21:05:05.200Z,23.98
2023-02-24T21:07:36.900Z,40.95
2023-02-24T21:12:33.579Z,61.58
2023-02-24T21:15:01.954Z,44.10
2023-02-24T21:17:30.763Z,23.05
2023-02-24T21:19:59.009Z,22.60
2023-02-24T21:22:31.166Z,31.00
2023-02-24T21:25:00.812Z,57.90
2023-02-24T21:27:29.038Z,74.28
2023-02-24T21:29:57.295Z,64.45
2023-02-24T21:32:25.607Z,57.45
2023-02-24T21:34:53.847Z,53.92
2023-02-24T21:37:22.073Z,29.05
2023-02-24T21:39:50.253Z,28.00
2023-02-24T21:42:19.972Z,19.95
2023-02-24T21:44:51.052Z,11.77
2023-02-24T21:47:20.454Z,6.93
2023-02-24T21:49:48.934Z,5.85
2023-02-24T21:52:17.207Z,4.28
2023-02-24T21:54:45.586Z,3.42
2023-02-24T21:57:13.904Z,3.97
2023-02-24T21:59:43.649Z,4.35
2023-02-24T22:02:13.985Z,3.13
2023-02-24T22:04:42.306Z,3.33
2023-02-24T22:07:10.542Z,3.13
2023-02-24T22:09:38.971Z,3.97
2023-02-24T22:12:07.547Z,3.25
2023-02-24T22:14:35.758Z,3.72
2023-02-24T22:17:05.424Z,3.78
2023-02-24T22:19:33.661Z,4.30
2023-02-24T22:22:01.868Z,4.15
2023-02-24T22:24:30.155Z,3.97
2023-02-24T22:26:58.660Z,3.92
2023-02-24T22:29:26.918Z,4.30
2023-02-24T22:31:55.311Z,4.18
2023-02-24T22:34:24.946Z,3.83
2023-02-24T22:36:53.584Z,3.75
2023-02-24T22:39:22.726Z,3.20
2023-02-24T22:41:52.502Z,3.20
2023-02-24T22:44:21.200Z,3.40
2023-02-24T22:46:49.907Z,2.90
2023-02-24T22:49:18.460Z,2.90
2023-02-24T22:51:48.162Z,2.95
2023-02-24T22:54:16.500Z,2.40
2023-02-24T22:56:44.760Z,3.50
2023-02-24T22:59:13.442Z,3.55
2023-02-24T23:01:42.951Z,3.55
2023-02-24T23:04:15.506Z,3.40
2023-02-24T23:06:44.566Z,2.95
2023-02-24T23:09:19.602Z,3.80
2023-02-24T23:11:48.223Z,3.97
2023-02-24T23:14:16.992Z,3.35
2023-02-24T23:16:47.253Z,4.20
2023-02-24T23:19:17.656Z,4.10
2023-02-24T23:21:47.893Z,4.78
2023-02-24T23:24:19.607Z,5.00
2023-02-24T23:26:49.563Z,4.90
2023-02-24T23:29:19.283Z,4.70
2023-02-24T23:31:47.845Z,5.25
2023-02-24T23:34:16.650Z,5.75
2023-02-24T23:36:46.801Z,5.47
2023-02-24T23:39:20.511Z,5.35
2023-02-24T23:41:49.456Z,4.82
2023-02-24T23:44:17.611Z,5.43
2023-02-24T23:46:46.647Z,4.53
2023-02-24T23:49:14.922Z,3.83
2023-02-24T23:51:48.595Z,4.18
2023-02-24T23:54:20.385Z,4.25
2023-02-24T23:56:48.964Z,4.40
2023-02-24T23:59:17.234Z,3.80
